createdAt,value
2018-05-11T00:00:23.996Z,10.00
2018-05-11T00:02:51.601Z,9.90
2018-05-11T00:05:19.927Z,9.80
2018-05-11T00:07:47.527Z,9.80
2018-05-11T00:10:15.088Z,9.80
2018-05-11T00:12:43.436Z,9.70
2018-05-11T00:15:11.073Z,9.70
2018-05-11T00:17:38.685Z,9.70
2018-05-11T00:20:06.244Z,9.70
2018-05-11T00:22:33.808Z,9.60
2018-05-11T00:25:02.173Z,9.50
2018-05-11T00:27:29.741Z,9.50
2018-05-11T00:29:58.123Z,9.40
2018-05-11T00:32:26.465Z,9.30
2018-05-11T00:34:54.069Z,9.30
2018-05-11T00:37:22.397Z,9.10
2018-05-11T00:39:50.776Z,9.00
2018-05-11T00:42:18.343Z,9.00
2018-05-11T00:44:45.906Z,8.90
2018-05-11T00:47:13.509Z,8.90
2018-05-11T00:49:41.844Z,8.90
2018-05-11T00:52:09.446Z,8.90
2018-05-11T00:54:37.019Z,9.00
2018-05-11T00:57:04.644Z,9.10
2018-05-11T00:59:32.212Z,9.20
2018-05-11T01:02:00.545Z,9.10
2018-05-11T01:04:28.147Z,9.00
2018-05-11T01:06:56.485Z,9.00
2018-05-11T01:09:24.876Z,8.90
2018-05-11T01:11:52.440Z,8.90
2018-05-11T01:14:20.075Z,8.90
2018-05-11T01:16:47.708Z,9.00
2018-05-11T01:19:15.239Z,9.10
2018-05-11T01:21:43.615Z,9.30
2018-05-11T01:24:11.952Z,9.40
2018-05-11T01:26:39.568Z,9.40
2018-05-11T01:29:07.916Z,9.50
2018-05-11T01:31:35.524Z,9.50
2018-05-11T01:34:03.097Z,9.60
2018-05-11T01:36:30.704Z,9.60
2018-05-11T01:38:58.320Z,9.70
2018-05-11T01:41:25.986Z,9.80
2018-05-11T01:43:53.562Z,9.90
2018-05-11T01:46:21.173Z,9.90
2018-05-11T01:48:48.829Z,10.00
2018-05-11T01:51:16.397Z,10.00
2018-05-11T01:53:44.011Z,10.10
2018-05-11T01:56:11.602Z,10.10
2018-05-11T01:58:39.980Z,10.10
2018-05-11T02:01:08.363Z,10.20
2018-05-11T02:03:36.705Z,10.20
2018-05-11T02:06:04.360Z,10.20
2018-05-11T02:08:31.932Z,10.20
2018-05-11T02:10:59.539Z,10.20
2018-05-11T02:13:27.123Z,10.10
2018-05-11T02:15:54.733Z,10.10
2018-05-11T02:18:23.128Z,10.00
2018-05-11T02:20:50.748Z,10.10
2018-05-11T02:23:18.320Z,10.00
2018-05-11T02:25:46.706Z,9.80
2018-05-11T02:28:15.083Z,9.70
2018-05-11T02:30:43.416Z,9.70
2018-05-11T02:33:11.004Z,9.70
2018-05-11T02:35:38.616Z,9.70
2018-05-11T02:38:06.227Z,9.60
2018-05-11T02:40:33.788Z,9.60
2018-05-11T02:43:01.364Z,9.50
2018-05-11T02:45:29.742Z,9.20
2018-05-11T02:47:57.325Z,9.20
2018-05-11T02:50:24.957Z,9.10
2018-05-11T02:52:53.380Z,8.80
2018-05-11T02:55:20.975Z,8.80
2018-05-11T02:57:48.604Z,8.70
2018-05-11T03:00:16.983Z,8.50
2018-05-11T03:02:44.549Z,8.50
2018-05-11T03:05:12.178Z,8.50
2018-05-11T03:07:39.752Z,8.50
2018-05-11T03:10:07.325Z,8.40
2018-05-11T03:12:34.940Z,8.30
2018-05-11T03:15:03.279Z,8.20
2018-05-11T03:17:30.896Z,8.20
2018-05-11T03:19:58.464Z,8.20
2018-05-11T03:22:26.075Z,8.30
2018-05-11T03:24:53.646Z,8.30
2018-05-11T03:27:21.980Z,8.20
2018-05-11T03:29:49.592Z,8.20
2018-05-11T03:32:17.925Z,8.20
2018-05-11T03:34:45.547Z,8.20
2018-05-11T03:37:13.121Z,8.20
2018-05-11T03:39:40.688Z,8.10
2018-05-11T03:42:08.292Z,8.10
2018-05-11T03:44:36.625Z,8.00
2018-05-11T03:47:04.237Z,8.00
2018-05-11T03:49:32.569Z,7.80
2018-05-11T03:52:02.141Z,7.80
2018-05-11T03:54:29.703Z,7.80
2018-05-11T03:56:57.352Z,7.80
2018-05-11T03:59:24.963Z,7.80
2018-05-11T04:02:04.447Z,7.80
2018-05-11T04:04:43.804Z,7.80
2018-05-11T04:07:23.159Z,7.80
2018-05-11T04:09:50.733Z,7.70
2018-05-11T04:12:18.344Z,7.70
2018-05-11T04:14:45.914Z,7.70
2018-05-11T04:17:13.524Z,7.60
2018-05-11T04:19:41.092Z,7.60
2018-05-11T04:22:09.527Z,7.60
2018-05-11T04:24:37.944Z,7.60
2018-05-11T04:27:05.552Z,7.60
2018-05-11T04:29:33.169Z,7.60
2018-05-11T04:32:00.788Z,7.50
2018-05-11T04:34:28.356Z,7.50
2018-05-11T04:36:55.916Z,7.50
2018-05-11T04:39:23.616Z,7.40
2018-05-11T04:41:51.951Z,7.50
2018-05-11T04:44:19.525Z,7.50
2018-05-11T04:46:47.163Z,7.60
2018-05-11T04:49:14.736Z,7.60
2018-05-11T04:51:42.344Z,7.60
2018-05-11T04:54:10.722Z,7.70
2018-05-11T04:56:39.101Z,7.80
2018-05-11T04:59:07.476Z,7.80
2018-05-11T05:01:35.851Z,7.90
2018-05-11T05:04:04.184Z,7.90
2018-05-11T05:06:31.791Z,7.90
2018-05-11T05:09:00.130Z,7.90
2018-05-11T05:11:27.707Z,7.80
2018-05-11T05:13:55.327Z,7.90
2018-05-11T05:16:22.889Z,7.80
2018-05-11T05:18:50.457Z,7.90
2018-05-11T05:21:18.106Z,7.90
2018-05-11T05:23:45.672Z,8.00
2018-05-11T05:26:13.285Z,8.10
2018-05-11T05:28:41.619Z,8.40
2018-05-11T05:31:09.266Z,8.40
2018-05-11T05:33:36.832Z,8.50
2018-05-11T05:36:04.443Z,8.60
2018-05-11T05:38:32.801Z,8.70
2018-05-11T05:41:00.369Z,8.70
2018-05-11T05:43:28.746Z,8.80
2018-05-11T05:45:57.099Z,8.90
2018-05-11T05:48:24.781Z,8.90
2018-05-11T05:50:53.130Z,9.00
2018-05-11T05:53:20.754Z,9.00
2018-05-11T05:55:48.326Z,9.10
2018-05-11T05:58:15.927Z,9.20
2018-05-11T06:00:43.497Z,9.30
2018-05-11T06:03:11.920Z,9.50
2018-05-11T06:05:39.495Z,9.40
2018-05-11T06:08:07.105Z,9.50
2018-05-11T06:10:34.740Z,9.70
2018-05-11T06:13:02.313Z,9.80
2018-05-11T06:15:29.884Z,9.90
2018-05-11T06:17:58.262Z,10.20
2018-05-11T06:20:26.603Z,10.40
2018-05-11T06:22:54.224Z,10.40
2018-05-11T06:25:21.804Z,10.50
2018-05-11T06:27:49.389Z,10.70
2018-05-11T06:30:17.004Z,10.80
2018-05-11T06:32:44.612Z,11.00
2018-05-11T06:35:12.348Z,11.20
2018-05-11T06:37:39.980Z,11.30
2018-05-11T06:40:07.593Z,11.40
2018-05-11T06:42:35.235Z,11.60
2018-05-11T06:45:02.844Z,11.80
2018-05-11T06:47:31.236Z,12.30
2018-05-11T06:49:58.846Z,12.30
2018-05-11T06:52:27.244Z,12.60
2018-05-11T06:54:54.817Z,12.60
2018-05-11T06:57:23.158Z,12.80
2018-05-11T06:59:50.766Z,12.80
2018-05-11T07:02:19.140Z,13.30
2018-05-11T07:04:47.508Z,13.50
2018-05-11T07:07:15.890Z,13.50
2018-05-11T07:09:44.290Z,13.50
2018-05-11T07:12:11.900Z,13.50
2018-05-11T07:14:39.472Z,13.40
2018-05-11T07:17:07.892Z,13.20
2018-05-11T07:19:35.501Z,13.20
2018-05-11T07:22:03.119Z,13.10
2018-05-11T07:24:30.744Z,13.20
2018-05-11T07:26:59.086Z,13.30
2018-05-11T07:29:26.708Z,13.30
2018-05-11T07:31:54.292Z,13.40
2018-05-11T07:34:21.905Z,13.60
2018-05-11T07:36:50.244Z,13.90
2018-05-11T07:39:17.877Z,13.80
2018-05-11T07:41:45.493Z,13.90
2018-05-11T07:44:13.842Z,13.90
2018-05-11T07:46:42.220Z,14.00
2018-05-11T07:49:09.840Z,14.00
2018-05-11T07:51:37.475Z,14.10
2018-05-11T07:54:05.904Z,14.50
2018-05-11T07:56:33.522Z,14.50
2018-05-11T07:59:01.870Z,14.90
2018-05-11T08:01:29.488Z,14.90
2018-05-11T08:03:57.111Z,15.00
2018-05-11T08:06:25.496Z,15.30
2018-05-11T08:08:53.898Z,15.30
2018-05-11T08:11:21.514Z,15.30
2018-05-11T08:13:49.169Z,15.30
2018-05-11T08:16:16.728Z,15.30
2018-05-11T08:18:44.305Z,15.30
2018-05-11T08:21:12.704Z,15.20
2018-05-11T08:23:40.292Z,15.10
2018-05-11T08:26:07.931Z,15.30
2018-05-11T08:28:35.519Z,15.00
2018-05-11T08:31:03.109Z,14.80
2018-05-11T08:33:30.732Z,14.80
2018-05-11T08:35:58.539Z,15.10
2018-05-11T08:38:26.014Z,15.30
2018-05-11T08:40:54.415Z,15.90
2018-05-11T08:43:22.038Z,15.90
2018-05-11T08:45:49.620Z,16.30
2018-05-11T08:48:18.009Z,16.30
2018-05-11T08:50:45.596Z,16.20
2018-05-11T08:53:13.228Z,16.30
2018-05-11T08:55:40.861Z,16.40
2018-05-11T08:58:08.517Z,16.50
2018-05-11T09:00:36.095Z,16.50
2018-05-11T09:03:04.545Z,16.80
2018-05-11T09:05:32.140Z,16.80
2018-05-11T09:07:59.753Z,16.90
2018-05-11T09:10:27.323Z,16.90
2018-05-11T09:12:54.944Z,17.20
2018-05-11T09:15:22.529Z,17.40
2018-05-11T09:17:50.145Z,17.40
2018-05-11T09:20:17.758Z,17.30
2018-05-11T09:22:45.376Z,17.30
2018-05-11T09:25:12.997Z,17.20
2018-05-11T09:27:40.700Z,17.10
2018-05-11T09:30:08.221Z,16.90
2018-05-11T09:32:35.866Z,16.70
2018-05-11T09:35:03.462Z,16.70
2018-05-11T09:37:31.804Z,16.60
2018-05-11T09:39:59.435Z,16.60
2018-05-11T09:42:27.069Z,16.50
2018-05-11T09:44:54.720Z,16.60
2018-05-11T09:47:23.091Z,16.60
2018-05-11T09:49:50.723Z,16.50
2018-05-11T09:52:18.344Z,16.20
2018-05-11T09:54:45.960Z,16.00
2018-05-11T09:57:14.344Z,15.70
2018-05-11T09:59:42.737Z,15.60
2018-05-11T10:02:11.115Z,15.70
2018-05-11T10:04:39.456Z,15.50
2018-05-11T10:07:07.068Z,15.50
2018-05-11T10:09:34.652Z,15.20
2018-05-11T10:12:02.292Z,15.30
2018-05-11T10:14:29.877Z,15.60
2018-05-11T10:16:59.091Z,15.80
2018-05-11T10:19:26.728Z,16.00
2018-05-11T10:21:54.389Z,16.10
2018-05-11T10:24:22.005Z,16.10
2018-05-11T10:26:50.348Z,16.30
2018-05-11T10:29:17.972Z,16.20
2018-05-11T10:31:45.544Z,16.60
2018-05-11T10:34:13.185Z,17.00
2018-05-11T10:36:40.770Z,17.40
2018-05-11T10:39:08.338Z,17.80
2018-05-11T10:41:35.949Z,17.90
2018-05-11T10:44:04.284Z,17.70
2018-05-11T10:46:32.664Z,17.80
2018-05-11T10:49:00.238Z,17.80
2018-05-11T10:51:27.862Z,18.20
2018-05-11T10:53:55.484Z,18.60
2018-05-11T10:56:23.857Z,18.40
2018-05-11T10:58:52.195Z,18.10
2018-05-11T11:01:19.807Z,18.00
2018-05-11T11:03:47.449Z,17.70
2018-05-11T11:06:15.786Z,17.80
2018-05-11T11:08:43.400Z,17.80
2018-05-11T11:11:10.970Z,17.80
2018-05-11T11:13:38.666Z,17.60
2018-05-11T11:16:06.947Z,17.30
2018-05-11T11:18:34.573Z,17.30
2018-05-11T11:21:02.162Z,17.30
2018-05-11T11:23:29.738Z,17.40
2018-05-11T11:25:57.380Z,17.20
2018-05-11T11:28:25.032Z,16.90
2018-05-11T11:30:52.633Z,16.80
2018-05-11T11:33:21.043Z,16.90
2018-05-11T11:35:48.631Z,16.90
2018-05-11T11:38:16.231Z,17.00
2018-05-11T11:40:44.613Z,17.30
2018-05-11T11:43:12.951Z,17.50
2018-05-11T11:45:40.609Z,17.50
2018-05-11T11:48:08.180Z,17.80
2018-05-11T11:50:35.785Z,18.20
2018-05-11T11:53:04.205Z,18.50
2018-05-11T11:55:31.819Z,18.40
2018-05-11T12:00:34.202Z,18.50
2018-05-11T12:03:02.627Z,18.60
2018-05-11T12:05:30.211Z,18.60
2018-05-11T12:07:57.785Z,18.60
2018-05-11T12:10:25.411Z,18.50
2018-05-11T12:12:53.022Z,18.30
2018-05-11T12:15:21.414Z,18.40
2018-05-11T12:17:49.031Z,18.40
2018-05-11T12:20:16.609Z,18.90
2018-05-11T12:22:44.275Z,19.40
2018-05-11T12:25:12.612Z,19.50
2018-05-11T12:27:40.227Z,19.50
2018-05-11T12:30:08.577Z,19.90
2018-05-11T12:32:36.212Z,19.90
2018-05-11T12:35:03.784Z,20.30
2018-05-11T12:37:31.391Z,20.40
2018-05-11T12:39:58.973Z,20.20
2018-05-11T12:42:26.590Z,20.30
2018-05-11T12:44:54.968Z,19.80
2018-05-11T12:47:23.304Z,19.80
2018-05-11T12:49:50.924Z,19.80
2018-05-11T12:52:18.563Z,20.00
2018-05-11T12:54:46.935Z,20.40
2018-05-11T12:57:15.325Z,20.60
2018-05-11T12:59:43.713Z,20.70
2018-05-11T13:02:12.128Z,20.80
2018-05-11T13:04:39.695Z,20.70
2018-05-11T13:07:07.346Z,20.90
2018-05-11T13:09:35.013Z,20.80
2018-05-11T13:12:02.673Z,20.60
2018-05-11T13:14:30.246Z,20.80
2018-05-11T13:16:57.860Z,21.10
2018-05-11T13:19:25.449Z,21.60
2018-05-11T13:21:53.016Z,22.00
2018-05-11T13:24:20.628Z,22.10
2018-05-11T13:26:48.961Z,21.80
2018-05-11T13:29:16.530Z,21.80
2018-05-11T13:31:44.249Z,22.20
2018-05-11T13:34:11.801Z,22.20
2018-05-11T13:36:39.369Z,21.50
2018-05-11T13:39:06.999Z,20.70
2018-05-11T13:41:34.576Z,20.70
2018-05-11T13:44:02.222Z,20.80
2018-05-11T13:46:30.563Z,21.50
2018-05-11T13:48:58.172Z,21.50
2018-05-11T13:51:25.797Z,21.40
2018-05-11T13:53:53.400Z,21.30
2018-05-11T13:56:20.991Z,21.40
2018-05-11T13:58:48.568Z,21.30
2018-05-11T14:01:16.183Z,21.40
2018-05-11T14:03:43.752Z,21.20
2018-05-11T14:06:11.360Z,21.10
2018-05-11T14:08:38.932Z,20.80
2018-05-11T14:11:07.320Z,20.80
2018-05-11T14:13:34.889Z,20.80
2018-05-11T14:16:02.496Z,21.20
2018-05-11T14:18:30.075Z,22.10
2018-05-11T14:20:57.696Z,22.90
2018-05-11T14:23:25.277Z,23.50
2018-05-11T14:25:52.857Z,23.80
2018-05-11T14:28:20.452Z,23.90
2018-05-11T14:30:48.031Z,23.70
2018-05-11T14:33:15.648Z,23.40
2018-05-11T14:35:44.039Z,23.60
2018-05-11T14:38:11.653Z,23.60
2018-05-11T14:40:40.022Z,23.50
2018-05-11T14:43:07.590Z,23.40
2018-05-11T14:45:35.202Z,23.90
2018-05-11T14:48:02.761Z,24.40
2018-05-11T14:50:30.450Z,24.50
2018-05-11T14:52:58.067Z,24.30
2018-05-11T14:55:26.402Z,23.20
2018-05-11T14:57:54.017Z,23.20
2018-05-11T15:00:21.592Z,22.80
2018-05-11T15:02:49.221Z,22.30
2018-05-11T15:05:17.615Z,21.70
2018-05-11T15:07:45.207Z,21.70
2018-05-11T15:10:12.888Z,21.40
2018-05-11T15:12:40.417Z,21.50
2018-05-11T15:15:08.062Z,21.80
2018-05-11T15:17:35.688Z,22.30
2018-05-11T15:20:04.027Z,23.60
2018-05-11T15:22:31.639Z,23.60
2018-05-11T15:25:00.004Z,24.50
2018-05-11T15:27:28.500Z,25.00
2018-05-11T15:29:56.842Z,25.10
2018-05-11T15:32:24.451Z,25.10
2018-05-11T15:34:52.017Z,25.20
2018-05-11T15:37:19.656Z,25.60
2018-05-11T15:39:47.993Z,26.00
2018-05-11T15:42:15.608Z,25.90
2018-05-11T15:44:43.186Z,26.10
2018-05-11T15:47:10.751Z,26.20
2018-05-11T15:49:38.356Z,26.00
2018-05-11T15:52:06.755Z,25.40
2018-05-11T15:54:34.325Z,25.40
2018-05-11T15:57:01.901Z,24.70
2018-05-11T15:59:29.500Z,23.90
2018-05-11T16:01:57.064Z,23.30
2018-05-11T16:04:24.712Z,22.90
2018-05-11T16:06:52.284Z,22.40
2018-05-11T16:12:13.574Z,21.70
2018-05-11T16:14:41.530Z,22.00
2018-05-11T16:17:09.571Z,22.50
2018-05-11T16:19:37.229Z,22.90
2018-05-11T16:22:04.857Z,23.40
2018-05-11T16:24:32.485Z,23.60
2018-05-11T16:27:00.061Z,23.60
2018-05-11T16:29:27.848Z,23.20
2018-05-11T16:31:55.481Z,22.50
2018-05-11T16:34:23.104Z,22.20
2018-05-11T16:36:50.683Z,22.40
2018-05-11T16:39:18.308Z,22.40
2018-05-11T16:41:45.933Z,22.40
2018-05-11T16:44:13.551Z,22.10
2018-05-11T16:46:41.149Z,21.50
2018-05-11T16:49:08.767Z,20.90
2018-05-11T16:51:36.356Z,20.40
2018-05-11T16:54:03.989Z,20.00
2018-05-11T16:56:31.619Z,19.70
2018-05-11T16:59:00.497Z,19.80
2018-05-11T17:01:31.111Z,20.50
2018-05-11T17:03:58.805Z,21.30
2018-05-11T17:06:27.211Z,22.80
2018-05-11T17:08:54.833Z,22.80
2018-05-11T17:11:22.573Z,23.50
2018-05-11T17:13:50.934Z,24.60
2018-05-11T17:16:18.583Z,24.50
2018-05-11T17:18:46.162Z,25.10
2018-05-11T17:21:14.540Z,25.70
2018-05-11T17:23:42.152Z,25.70
2018-05-11T17:26:09.820Z,25.60
2018-05-11T17:28:37.455Z,25.70
2018-05-11T17:31:05.058Z,25.60
2018-05-11T17:33:32.638Z,25.40
2018-05-11T17:36:00.248Z,25.20
2018-05-11T17:38:27.828Z,25.20
2018-05-11T17:40:55.443Z,24.90
2018-05-11T17:43:23.781Z,24.60
2018-05-11T17:45:51.423Z,24.60
2018-05-11T17:48:18.992Z,24.40
2018-05-11T17:50:46.565Z,24.10
2018-05-11T17:53:14.170Z,24.00
2018-05-11T17:55:41.792Z,24.10
2018-05-11T17:58:09.432Z,23.90
2018-05-11T18:00:37.015Z,23.50
2018-05-11T18:03:04.594Z,22.90
2018-05-11T18:05:32.223Z,22.50
2018-05-11T18:07:59.849Z,22.20
2018-05-11T18:10:27.431Z,21.90
2018-05-11T18:12:56.474Z,21.40
2018-05-11T18:15:24.128Z,20.90
2018-05-11T18:17:52.223Z,20.50
2018-05-11T18:20:20.605Z,19.90
2018-05-11T18:22:49.001Z,19.70
2018-05-11T18:25:17.949Z,19.60
2018-05-11T18:27:45.531Z,19.40
2018-05-11T18:30:13.162Z,19.10
2018-05-11T18:32:40.742Z,18.90
2018-05-11T18:35:08.355Z,18.80
2018-05-11T18:37:36.240Z,18.60
2018-05-11T18:40:04.077Z,18.20
2018-05-11T18:42:31.624Z,17.80
2018-05-11T18:44:59.243Z,17.50
2018-05-11T18:47:26.822Z,17.10
2018-05-11T18:49:54.445Z,16.80
2018-05-11T18:52:22.016Z,16.50
2018-05-11T18:54:49.595Z,16.30
2018-05-11T18:57:17.209Z,16.00
2018-05-11T18:59:44.814Z,15.80
2018-05-11T19:02:12.430Z,15.60
2018-05-11T19:04:40.017Z,15.40
2018-05-11T19:07:07.641Z,15.20
2018-05-11T19:09:35.265Z,15.00
2018-05-11T19:12:02.870Z,14.90
2018-05-11T19:14:30.496Z,14.80
2018-05-11T19:16:58.078Z,14.70
2018-05-11T19:19:25.709Z,14.60
2018-05-11T19:21:53.310Z,14.40
2018-05-11T19:24:20.892Z,14.40
2018-05-11T19:26:48.529Z,14.20
2018-05-11T19:29:16.113Z,14.20
2018-05-11T19:31:43.707Z,14.10
2018-05-11T19:34:11.324Z,14.00
2018-05-11T19:36:38.907Z,13.90
2018-05-11T19:39:06.532Z,13.90
2018-05-11T19:41:34.109Z,13.80
2018-05-11T19:44:01.745Z,13.70
2018-05-11T19:46:29.361Z,13.70
2018-05-11T19:48:56.946Z,13.60
2018-05-11T19:51:24.576Z,13.50
2018-05-11T19:53:52.212Z,13.40
2018-05-11T19:56:19.798Z,13.40
2018-05-11T19:58:47.391Z,13.30
2018-05-11T20:01:15.001Z,13.30
2018-05-11T20:03:42.626Z,13.20
2018-05-11T20:06:10.252Z,13.20
2018-05-11T20:08:37.853Z,13.20
2018-05-11T20:11:05.459Z,13.10
2018-05-11T20:13:33.078Z,13.10
2018-05-11T20:16:00.725Z,13.00
2018-05-11T20:18:28.301Z,13.00
2018-05-11T20:20:56.023Z,12.90
2018-05-11T20:23:23.643Z,12.80
2018-05-11T20:25:51.996Z,12.70
2018-05-11T20:28:19.616Z,12.70
2018-05-11T20:30:47.188Z,12.60
2018-05-11T20:33:14.812Z,12.60
2018-05-11T20:35:42.428Z,12.50
2018-05-11T20:38:10.016Z,12.40
2018-05-11T20:40:37.856Z,12.40
2018-05-11T20:43:05.548Z,12.40
2018-05-11T20:45:33.246Z,12.40
2018-05-11T20:48:01.084Z,12.30
2018-05-11T20:50:28.892Z,12.20
2018-05-11T20:52:56.795Z,12.20
2018-05-11T20:55:24.558Z,12.20
2018-05-11T20:57:52.230Z,12.10
2018-05-11T21:00:19.834Z,12.10
2018-05-11T21:02:47.484Z,12.10
2018-05-11T21:05:15.056Z,12.00
2018-05-11T21:07:42.640Z,12.00
2018-05-11T21:10:10.256Z,12.00
2018-05-11T21:12:38.651Z,11.90
2018-05-11T21:15:06.228Z,11.80
2018-05-11T21:17:33.843Z,11.80
2018-05-11T21:20:01.422Z,11.80
2018-05-11T21:22:29.015Z,11.70
2018-05-11T21:24:56.633Z,11.70
2018-05-11T21:27:24.257Z,11.70
2018-05-11T21:29:51.889Z,11.60
2018-05-11T21:32:19.466Z,11.60
2018-05-11T21:34:47.054Z,11.60
2018-05-11T21:37:14.681Z,11.70
2018-05-11T21:39:42.261Z,11.70
2018-05-11T21:42:09.870Z,11.70
2018-05-11T21:44:37.461Z,11.70
2018-05-11T21:47:05.088Z,11.70
2018-05-11T21:49:32.672Z,11.70
2018-05-11T21:52:00.297Z,11.80
2018-05-11T21:54:27.873Z,11.70
2018-05-11T21:56:56.260Z,11.80
2018-05-11T21:59:24.608Z,11.80
2018-05-11T22:01:52.316Z,11.80
2018-05-11T22:04:19.903Z,11.70
2018-05-11T22:06:47.542Z,11.70
2018-05-11T22:09:15.163Z,11.70
2018-05-11T22:11:42.741Z,11.70
2018-05-11T22:14:10.354Z,11.60
2018-05-11T22:16:37.973Z,11.60
2018-05-11T22:19:05.591Z,11.70
2018-05-11T22:21:33.171Z,11.70
2018-05-11T22:24:00.749Z,11.60
2018-05-11T22:26:29.124Z,11.60
2018-05-11T22:28:57.469Z,11.70
2018-05-11T22:31:25.090Z,11.70
2018-05-11T22:33:52.659Z,11.70
2018-05-11T22:36:20.277Z,11.80
2018-05-11T22:38:47.850Z,11.80
2018-05-11T22:41:15.471Z,11.90
2018-05-11T22:43:43.037Z,11.90
2018-05-11T22:46:10.634Z,11.90
2018-05-11T22:48:39.029Z,11.90
2018-05-11T22:51:06.614Z,11.90
2018-05-11T22:53:34.202Z,12.00
2018-05-11T22:56:01.820Z,12.10
2018-05-11T22:58:29.401Z,12.20
2018-05-11T23:00:57.022Z,12.20
2018-05-11T23:03:24.607Z,12.20
2018-05-11T23:05:52.215Z,12.30
2018-05-11T23:08:19.792Z,12.30
2018-05-11T23:10:47.412Z,12.40
2018-05-11T23:13:14.996Z,12.40
2018-05-11T23:15:42.934Z,12.40
2018-05-11T23:18:10.540Z,12.40
2018-05-11T23:20:38.107Z,12.50
2018-05-11T23:23:05.724Z,12.50
2018-05-11T23:25:33.293Z,12.50
2018-05-11T23:28:00.914Z,12.50
2018-05-11T23:30:28.496Z,12.50
2018-05-11T23:32:56.073Z,12.60
2018-05-11T23:35:23.694Z,12.50
2018-05-11T23:37:51.265Z,12.50
2018-05-11T23:40:18.874Z,12.50
2018-05-11T23:42:46.519Z,12.60
2018-05-11T23:45:14.136Z,12.50
2018-05-11T23:47:42.527Z,12.60
2018-05-11T23:50:10.121Z,12.50
2018-05-11T23:52:37.750Z,12.50
2018-05-11T23:55:05.333Z,12.50
2018-05-11T23:57:33.004Z,12.60
